sensor_id;sensor_type;location;lat;lon;timestamp;pressure;altitude;pressure_sealevel;temperature;humidity
21185;BME280;18176;49.502;11.754;2023-03-19T00:03:31;96731.41;;;9.53;73.50
21185;BME280;18176;49.502;11.754;2023-03-19T00:07:33;96722.78;;;9.35;73.94
21185;BME280;18176;49.502;11.754;2023-03-19T00:11:34;96725.41;;;9.46;73.29
21185;BME280;18176;49.502;11.754;2023-03-19T00:15:34;96713.50;;;9.55;73.19
21185;BME280;18176;49.502;11.754;2023-03-19T00:19:34;96717.00;;;9.38;73.58
21185;BME280;18176;49.502;11.754;2023-03-19T00:23:36;96711.66;;;9.14;75.37
21185;BME280;18176;49.502;11.754;2023-03-19T00:27:37;96720.38;;;9.03;75.44
21185;BME280;18176;49.502;11.754;2023-03-19T00:31:39;96709.34;;;9.06;75.49
21185;BME280;18176;49.502;11.754;2023-03-19T00:35:39;96701.69;;;8.87;75.45
21185;BME280;18176;49.502;11.754;2023-03-19T00:39:42;96724.22;;;8.89;75.51
21185;BME280;18176;49.502;11.754;2023-03-19T00:43:44;96707.94;;;8.92;74.81
21185;BME280;18176;49.502;11.754;2023-03-19T00:47:44;96695.94;;;8.78;74.18
21185;BME280;18176;49.502;11.754;2023-03-19T00:51:50;96730.09;;;8.91;74.09
21185;BME280;18176;49.502;11.754;2023-03-19T00:55:58;96705.59;;;8.84;74.75
21185;BME280;18176;49.502;11.754;2023-03-19T01:00:07;96695.22;;;8.71;74.33
21185;BME280;18176;49.502;11.754;2023-03-19T01:04:11;96719.31;;;8.63;75.29
21185;BME280;18176;49.502;11.754;2023-03-19T01:08:18;96718.56;;;8.56;75.32
21185;BME280;18176;49.502;11.754;2023-03-19T01:12:21;96724.56;;;8.45;75.76
21185;BME280;18176;49.502;11.754;2023-03-19T01:16:22;96716.81;;;8.32;75.82
21185;BME280;18176;49.502;11.754;2023-03-19T01:20:22;96728.09;;;8.39;75.78
21185;BME280;18176;49.502;11.754;2023-03-19T01:24:23;96723.88;;;8.38;75.60
21185;BME280;18176;49.502;11.754;2023-03-19T01:28:27;96708.13;;;8.07;76.07
21185;BME280;18176;49.502;11.754;2023-03-19T01:32:27;96710.78;;;8.07;76.40
21185;BME280;18176;49.502;11.754;2023-03-19T01:36:48;96730.69;;;8.27;76.54
21185;BME280;18176;49.502;11.754;2023-03-19T01:40:56;96707.84;;;8.15;75.69
21185;BME280;18176;49.502;11.754;2023-03-19T01:45:00;96714.03;;;8.27;75.11
21185;BME280;18176;49.502;11.754;2023-03-19T01:49:23;96710.50;;;8.15;76.01
21185;BME280;18176;49.502;11.754;2023-03-19T01:53:48;96722.94;;;8.08;76.47
21185;BME280;18176;49.502;11.754;2023-03-19T01:58:01;96717.69;;;8.08;76.17
21185;BME280;18176;49.502;11.754;2023-03-19T02:02:28;96726.75;;;8.12;76.27
21185;BME280;18176;49.502;11.754;2023-03-19T02:06:39;96710.50;;;8.15;75.76
21185;BME280;18176;49.502;11.754;2023-03-19T02:10:41;96707.25;;;8.13;75.48
21185;BME280;18176;49.502;11.754;2023-03-19T02:14:43;96716.50;;;8.22;75.37
21185;BME280;18176;49.502;11.754;2023-03-19T02:18:47;96689.50;;;8.02;75.15
21185;BME280;18176;49.502;11.754;2023-03-19T02:22:56;96714.88;;;8.21;75.16
21185;BME280;18176;49.502;11.754;2023-03-19T02:27:03;96709.75;;;8.08;75.02
21185;BME280;18176;49.502;11.754;2023-03-19T02:31:08;96726.59;;;8.25;74.79
21185;BME280;18176;49.502;11.754;2023-03-19T02:35:26;96732.03;;;8.12;75.14
21185;BME280;18176;49.502;11.754;2023-03-19T02:39:52;96714.66;;;8.04;75.08
21185;BME280;18176;49.502;11.754;2023-03-19T02:43:57;96723.38;;;8.05;75.46
21185;BME280;18176;49.502;11.754;2023-03-19T02:48:00;96686.13;;;7.76;76.36
21185;BME280;18176;49.502;11.754;2023-03-19T02:52:00;96707.69;;;7.92;76.68
21185;BME280;18176;49.502;11.754;2023-03-19T02:56:00;96700.94;;;7.96;76.87
21185;BME280;18176;49.502;11.754;2023-03-19T03:00:05;96718.66;;;7.89;77.75
21185;BME280;18176;49.502;11.754;2023-03-19T03:04:06;96706.66;;;7.93;77.29
21185;BME280;18176;49.502;11.754;2023-03-19T03:08:07;96727.34;;;7.96;77.35
21185;BME280;18176;49.502;11.754;2023-03-19T03:12:08;96725.84;;;7.82;77.63
21185;BME280;18176;49.502;11.754;2023-03-19T03:16:11;96735.09;;;7.91;77.54
21185;BME280;18176;49.502;11.754;2023-03-19T03:20:14;96743.28;;;7.83;77.87
21185;BME280;18176;49.502;11.754;2023-03-19T03:24:16;96750.13;;;7.65;78.00
21185;BME280;18176;49.502;11.754;2023-03-19T03:28:16;96747.91;;;7.62;78.04
21185;BME280;18176;49.502;11.754;2023-03-19T03:32:19;96749.53;;;7.63;77.77
21185;BME280;18176;49.502;11.754;2023-03-19T03:36:19;96755.34;;;7.47;78.32
21185;BME280;18176;49.502;11.754;2023-03-19T03:40:20;96724.66;;;7.28;78.56
21185;BME280;18176;49.502;11.754;2023-03-19T03:44:25;96755.59;;;7.39;78.90
21185;BME280;18176;49.502;11.754;2023-03-19T03:48:29;96745.50;;;7.36;78.90
21185;BME280;18176;49.502;11.754;2023-03-19T03:52:30;96748.88;;;7.43;79.34
21185;BME280;18176;49.502;11.754;2023-03-19T03:56:31;96711.94;;;7.50;78.07
21185;BME280;18176;49.502;11.754;2023-03-19T04:00:32;96754.69;;;7.76;77.74
21185;BME280;18176;49.502;11.754;2023-03-19T04:04:35;96765.16;;;7.90;77.16
21185;BME280;18176;49.502;11.754;2023-03-19T04:08:35;96751.53;;;7.68;77.21
21185;BME280;18176;49.502;11.754;2023-03-19T04:12:36;96765.25;;;7.76;76.94
21185;BME280;18176;49.502;11.754;2023-03-19T04:16:37;96770.50;;;7.76;76.80
21185;BME280;18176;49.502;11.754;2023-03-19T04:20:41;96760.66;;;7.65;77.24
21185;BME280;18176;49.502;11.754;2023-03-19T04:24:41;96773.50;;;7.55;77.56
21185;BME280;18176;49.502;11.754;2023-03-19T04:28:41;96763.50;;;7.39;78.09
21185;BME280;18176;49.502;11.754;2023-03-19T04:32:41;96755.88;;;7.31;78.40
21185;BME280;18176;49.502;11.754;2023-03-19T04:36:45;96771.41;;;7.39;78.20
21185;BME280;18176;49.502;11.754;2023-03-19T04:40:46;96769.88;;;7.56;77.60
21185;BME280;18176;49.502;11.754;2023-03-19T04:44:47;96776.53;;;7.59;77.69
21185;BME280;18176;49.502;11.754;2023-03-19T04:48:49;96777.34;;;7.59;77.82
21185;BME280;18176;49.502;11.754;2023-03-19T04:52:51;96775.56;;;7.53;78.07
21185;BME280;18176;49.502;11.754;2023-03-19T04:56:53;96775.31;;;7.30;79.65
21185;BME280;18176;49.502;11.754;2023-03-19T05:00:57;96742.56;;;7.44;78.46
21185;BME280;18176;49.502;11.754;2023-03-19T05:05:27;96761.78;;;7.76;77.27
21185;BME280;18176;49.502;11.754;2023-03-19T05:09:30;96769.28;;;7.79;76.88
21185;BME280;18176;49.502;11.754;2023-03-19T05:13:30;96774.59;;;7.72;77.38
21185;BME280;18176;49.502;11.754;2023-03-19T05:17:32;96781.44;;;7.55;78.60
21185;BME280;18176;49.502;11.754;2023-03-19T05:21:49;96784.69;;;7.57;78.92
21185;BME280;18176;49.502;11.754;2023-03-19T05:25:57;96788.50;;;7.61;78.74
21185;BME280;18176;49.502;11.754;2023-03-19T05:30:23;96783.63;;;7.58;78.80
21185;BME280;18176;49.502;11.754;2023-03-19T05:34:37;96792.72;;;7.62;78.99
21185;BME280;18176;49.502;11.754;2023-03-19T05:38:38;96792.69;;;7.69;78.82
21185;BME280;18176;49.502;11.754;2023-03-19T05:42:46;96772.41;;;7.69;78.42
21185;BME280;18176;49.502;11.754;2023-03-19T05:47:00;96799.50;;;8.01;77.71
21185;BME280;18176;49.502;11.754;2023-03-19T05:51:04;96792.88;;;7.99;77.73
21185;BME280;18176;49.502;11.754;2023-03-19T05:55:09;96790.53;;;8.09;77.65
21185;BME280;18176;49.502;11.754;2023-03-19T05:59:16;96803.00;;;8.20;77.32
21185;BME280;18176;49.502;11.754;2023-03-19T06:03:26;96792.19;;;8.28;76.32
21185;BME280;18176;49.502;11.754;2023-03-19T06:07:30;96822.06;;;8.46;75.80
21185;BME280;18176;49.502;11.754;2023-03-19T06:11:30;96823.97;;;8.58;75.58
21185;BME280;18176;49.502;11.754;2023-03-19T06:15:53;96717.53;;;8.03;75.15
21185;BME280;18176;49.502;11.754;2023-03-19T06:19:59;96830.81;;;8.83;74.45
21185;BME280;18176;49.502;11.754;2023-03-19T06:23:59;96848.13;;;8.97;74.27
21185;BME280;18176;49.502;11.754;2023-03-19T06:28:04;96849.28;;;9.01;74.38
21185;BME280;18176;49.502;11.754;2023-03-19T06:32:11;96848.69;;;9.17;74.21
21185;BME280;18176;49.502;11.754;2023-03-19T06:36:12;96819.22;;;9.14;73.33
21185;BME280;18176;49.502;11.754;2023-03-19T06:40:13;96859.25;;;9.47;73.05
21185;BME280;18176;49.502;11.754;2023-03-19T06:44:13;96864.47;;;9.54;72.39
21185;BME280;18176;49.502;11.754;2023-03-19T06:48:16;96857.09;;;9.56;71.69
21185;BME280;18176;49.502;11.754;2023-03-19T06:52:16;96877.00;;;9.88;71.10
21185;BME280;18176;49.502;11.754;2023-03-19T06:56:16;96874.25;;;9.83;70.35
21185;BME280;18176;49.502;11.754;2023-03-19T07:00:18;96842.22;;;9.73;70.80
21185;BME280;18176;49.502;11.754;2023-03-19T07:04:21;96883.66;;;10.32;69.85
21185;BME280;18176;49.502;11.754;2023-03-19T07:08:21;96887.94;;;10.44;69.64
21185;BME280;18176;49.502;11.754;2023-03-19T07:12:26;96896.34;;;10.41;69.07
21185;BME280;18176;49.502;11.754;2023-03-19T07:16:26;96901.31;;;9.97;69.29
21185;BME280;18176;49.502;11.754;2023-03-19T07:20:29;96916.00;;;10.22;69.90
21185;BME280;18176;49.502;11.754;2023-03-19T07:24:30;96921.34;;;10.69;68.57
21185;BME280;18176;49.502;11.754;2023-03-19T07:28:30;96928.59;;;10.73;67.91
21185;BME280;18176;49.502;11.754;2023-03-19T07:32:30;96928.00;;;11.06;67.16
21185;BME280;18176;49.502;11.754;2023-03-19T07:36:33;96916.78;;;11.39;66.43
21185;BME280;18176;49.502;11.754;2023-03-19T07:40:33;96927.41;;;11.78;66.44
21185;BME280;18176;49.502;11.754;2023-03-19T07:44:37;96929.25;;;12.23;64.40
21185;BME280;18176;49.502;11.754;2023-03-19T07:48:38;96933.94;;;12.49;63.37
21185;BME280;18176;49.502;11.754;2023-03-19T07:52:41;96939.25;;;12.65;62.78
21185;BME280;18176;49.502;11.754;2023-03-19T07:56:41;96943.44;;;13.11;61.92
21185;BME280;18176;49.502;11.754;2023-03-19T08:00:41;96938.09;;;13.11;60.08
21185;BME280;18176;49.502;11.754;2023-03-19T08:04:42;96939.16;;;12.44;61.31
21185;BME280;18176;49.502;11.754;2023-03-19T08:08:45;96928.47;;;12.72;61.65
21185;BME280;18176;49.502;11.754;2023-03-19T08:12:45;96938.75;;;12.68;61.63
21185;BME280;18176;49.502;11.754;2023-03-19T08:16:46;96934.72;;;13.16;61.39
21185;BME280;18176;49.502;11.754;2023-03-19T08:20:46;96935.16;;;13.29;59.82
21185;BME280;18176;49.502;11.754;2023-03-19T08:24:49;96931.44;;;13.52;59.70
21185;BME280;18176;49.502;11.754;2023-03-19T08:28:49;96953.38;;;13.81;58.98
21185;BME280;18176;49.502;11.754;2023-03-19T08:32:49;96955.50;;;13.84;58.69
21185;BME280;18176;49.502;11.754;2023-03-19T08:36:49;96954.69;;;14.05;58.44
21185;BME280;18176;49.502;11.754;2023-03-19T08:40:55;96958.00;;;14.17;57.76
21185;BME280;18176;49.502;11.754;2023-03-19T08:45:06;96929.88;;;13.99;58.64
21185;BME280;18176;49.502;11.754;2023-03-19T08:49:12;96958.59;;;14.24;59.05
21185;BME280;18176;49.502;11.754;2023-03-19T08:53:19;96936.69;;;14.17;58.52
21185;BME280;18176;49.502;11.754;2023-03-19T08:57:22;96951.16;;;14.26;59.09
21185;BME280;18176;49.502;11.754;2023-03-19T09:01:22;96951.91;;;14.43;59.61
21185;BME280;18176;49.502;11.754;2023-03-19T09:05:22;96950.06;;;14.49;60.07
21185;BME280;18176;49.502;11.754;2023-03-19T09:09:26;96946.34;;;14.50;61.03
21185;BME280;18176;49.502;11.754;2023-03-19T09:13:29;96945.03;;;14.52;61.57
21185;BME280;18176;49.502;11.754;2023-03-19T09:17:29;96952.56;;;14.60;61.38
21185;BME280;18176;49.502;11.754;2023-03-19T09:21:29;96961.69;;;14.69;61.89
21185;BME280;18176;49.502;11.754;2023-03-19T09:25:29;96951.00;;;14.64;61.74
21185;BME280;18176;49.502;11.754;2023-03-19T09:29:32;96957.53;;;14.84;62.13
21185;BME280;18176;49.502;11.754;2023-03-19T09:33:33;96970.63;;;14.85;61.99
21185;BME280;18176;49.502;11.754;2023-03-19T09:37:33;96952.19;;;14.20;63.48
21185;BME280;18176;49.502;11.754;2023-03-19T09:41:48;96954.25;;;14.13;64.24
21185;BME280;18176;49.502;11.754;2023-03-19T09:46:03;96990.38;;;14.04;65.65
21185;BME280;18176;49.502;11.754;2023-03-19T09:50:13;96984.44;;;13.97;67.50
21185;BME280;18176;49.502;11.754;2023-03-19T09:54:27;96981.09;;;13.85;68.69
21185;BME280;18176;49.502;11.754;2023-03-19T09:58:32;96992.69;;;13.74;69.63
21185;BME280;18176;49.502;11.754;2023-03-19T10:02:42;96982.28;;;13.72;70.59
21185;BME280;18176;49.502;11.754;2023-03-19T10:06:42;96981.22;;;13.52;70.42
21185;BME280;18176;49.502;11.754;2023-03-19T10:10:50;96985.13;;;13.66;71.23
21185;BME280;18176;49.502;11.754;2023-03-19T10:15:13;96991.00;;;13.46;71.04
21185;BME280;18176;49.502;11.754;2023-03-19T10:19:23;97001.09;;;13.44;72.53
21185;BME280;18176;49.502;11.754;2023-03-19T10:23:36;96982.91;;;12.86;74.39
21185;BME280;18176;49.502;11.754;2023-03-19T10:27:40;97005.66;;;13.10;76.39
21185;BME280;18176;49.502;11.754;2023-03-19T10:31:53;97014.75;;;12.98;77.09
21185;BME280;18176;49.502;11.754;2023-03-19T10:36:15;97011.09;;;12.87;78.58
21185;BME280;18176;49.502;11.754;2023-03-19T10:40:47;97014.97;;;12.96;78.80
21185;BME280;18176;49.502;11.754;2023-03-19T10:45:01;97021.28;;;12.90;80.13
21185;BME280;18176;49.502;11.754;2023-03-19T10:49:14;97025.47;;;12.86;80.39
21185;BME280;18176;49.502;11.754;2023-03-19T10:53:38;97022.75;;;13.14;79.76
21185;BME280;18176;49.502;11.754;2023-03-19T10:58:02;97009.66;;;12.96;80.37
21185;BME280;18176;49.502;11.754;2023-03-19T11:02:17;97003.50;;;13.07;79.85
21185;BME280;18176;49.502;11.754;2023-03-19T11:06:24;97002.56;;;12.85;81.18
21185;BME280;18176;49.502;11.754;2023-03-19T11:10:30;96978.81;;;12.95;81.92
21185;BME280;18176;49.502;11.754;2023-03-19T11:14:37;96966.94;;;13.19;82.07
21185;BME280;18176;49.502;11.754;2023-03-19T11:18:39;96981.56;;;13.38;81.82
21185;BME280;18176;49.502;11.754;2023-03-19T11:22:40;96978.13;;;13.60;80.61
21185;BME280;18176;49.502;11.754;2023-03-19T11:26:53;96989.16;;;13.90;79.71
21185;BME280;18176;49.502;11.754;2023-03-19T11:31:01;96986.66;;;14.05;80.07
21185;BME280;18176;49.502;11.754;2023-03-19T11:35:13;96971.66;;;13.99;76.57
21185;BME280;18176;49.502;11.754;2023-03-19T11:39:26;96982.09;;;14.27;77.84
21185;BME280;18176;49.502;11.754;2023-03-19T11:43:53;96977.63;;;14.59;77.09
21185;BME280;18176;49.502;11.754;2023-03-19T11:48:11;96953.50;;;14.44;76.13
21185;BME280;18176;49.502;11.754;2023-03-19T11:52:22;96978.53;;;15.07;74.62
21185;BME280;18176;49.502;11.754;2023-03-19T11:56:35;96964.44;;;15.58;74.02
21185;BME280;18176;49.502;11.754;2023-03-19T12:00:47;96959.53;;;16.12;69.90
21185;BME280;18176;49.502;11.754;2023-03-19T12:05:02;96968.94;;;16.35;68.20
21185;BME280;18176;49.502;11.754;2023-03-19T12:09:13;96964.16;;;16.47;68.41
21185;BME280;18176;49.502;11.754;2023-03-19T12:13:36;96944.84;;;16.20;68.53
21185;BME280;18176;49.502;11.754;2023-03-19T12:17:54;96951.78;;;16.10;65.38
21185;BME280;18176;49.502;11.754;2023-03-19T12:22:10;96952.91;;;16.45;66.81
21185;BME280;18176;49.502;11.754;2023-03-19T12:26:24;96953.50;;;16.92;64.82
21185;BME280;18176;49.502;11.754;2023-03-19T12:30:36;96929.22;;;17.68;63.91
21185;BME280;18176;49.502;11.754;2023-03-19T12:34:45;96919.63;;;18.05;62.08
21185;BME280;18176;49.502;11.754;2023-03-19T12:38:52;96928.06;;;18.71;57.30
21185;BME280;18176;49.502;11.754;2023-03-19T12:42:57;96926.38;;;18.80;57.07
21185;BME280;18176;49.502;11.754;2023-03-19T12:47:06;96925.72;;;18.93;56.85
21185;BME280;18176;49.502;11.754;2023-03-19T12:51:16;96933.53;;;19.90;54.38
21185;BME280;18176;49.502;11.754;2023-03-19T12:55:23;96927.66;;;21.13;51.86
21185;BME280;18176;49.502;11.754;2023-03-19T12:59:33;96912.16;;;22.14;48.22
21185;BME280;18176;49.502;11.754;2023-03-19T13:03:43;96886.16;;;22.76;45.66
21185;BME280;18176;49.502;11.754;2023-03-19T13:08:02;96900.78;;;23.05;44.85
21185;BME280;18176;49.502;11.754;2023-03-19T13:12:09;96908.78;;;23.11;43.66
21185;BME280;18176;49.502;11.754;2023-03-19T13:16:29;96900.19;;;22.06;45.15
21185;BME280;18176;49.502;11.754;2023-03-19T13:20:52;96907.78;;;21.09;49.20
21185;BME280;18176;49.502;11.754;2023-03-19T13:25:01;96899.34;;;20.33;51.04
21185;BME280;18176;49.502;11.754;2023-03-19T13:29:08;96874.78;;;20.85;49.94
21185;BME280;18176;49.502;11.754;2023-03-19T13:33:20;96897.56;;;20.60;50.99
21185;BME280;18176;49.502;11.754;2023-03-19T13:37:23;96881.44;;;20.42;49.74
21185;BME280;18176;49.502;11.754;2023-03-19T13:42:05;96889.16;;;20.29;50.55
21185;BME280;18176;49.502;11.754;2023-03-19T13:46:37;96868.25;;;21.18;47.94
21185;BME280;18176;49.502;11.754;2023-03-19T13:50:55;96883.44;;;21.14;47.55
21185;BME280;18176;49.502;11.754;2023-03-19T13:55:44;96863.84;;;21.77;48.19
21185;BME280;18176;49.502;11.754;2023-03-19T14:00:48;96836.19;;;21.03;48.25
21185;BME280;18176;49.502;11.754;2023-03-19T14:04:33;96855.50;;;21.10;49.14
21185;BME280;18176;49.502;11.754;2023-03-19T14:08:44;96862.00;;;22.57;46.42
21185;BME280;18176;49.502;11.754;2023-03-19T14:12:48;96848.25;;;21.87;46.24
21185;BME280;18176;49.502;11.754;2023-03-19T14:16:52;96869.56;;;21.61;47.63
21185;BME280;18176;49.502;11.754;2023-03-19T14:21:00;96867.66;;;21.76;47.69
21185;BME280;18176;49.502;11.754;2023-03-19T14:25:17;96859.50;;;21.26;47.56
21185;BME280;18176;49.502;11.754;2023-03-19T14:29:21;96845.69;;;20.55;48.98
21185;BME280;18176;49.502;11.754;2023-03-19T14:33:34;96857.53;;;20.54;49.86
21185;BME280;18176;49.502;11.754;2023-03-19T14:37:45;96853.50;;;20.38;49.95
21185;BME280;18176;49.502;11.754;2023-03-19T14:41:49;96865.31;;;20.04;50.40
21185;BME280;18176;49.502;11.754;2023-03-19T14:45:59;96855.03;;;19.69;51.08
21185;BME280;18176;49.502;11.754;2023-03-19T14:50:26;96848.13;;;19.63;51.32
21185;BME280;18176;49.502;11.754;2023-03-19T14:54:37;96851.47;;;19.08;52.69
21185;BME280;18176;49.502;11.754;2023-03-19T14:58:48;96868.84;;;19.39;53.00
21185;BME280;18176;49.502;11.754;2023-03-19T15:02:50;96853.63;;;19.29;52.30
21185;BME280;18176;49.502;11.754;2023-03-19T15:06:58;96856.59;;;19.28;52.42
21185;BME280;18176;49.502;11.754;2023-03-19T15:15:50;96856.72;;;19.65;51.98
21185;BME280;18176;49.502;11.754;2023-03-19T15:19:59;96856.75;;;20.53;49.70
21185;BME280;18176;49.502;11.754;2023-03-19T15:24:06;96851.19;;;20.31;49.74
21185;BME280;18176;49.502;11.754;2023-03-19T15:28:15;96861.78;;;19.85;50.92
21185;BME280;18176;49.502;11.754;2023-03-19T15:32:30;96847.50;;;19.24;51.88
21185;BME280;18176;49.502;11.754;2023-03-19T15:36:54;96845.13;;;18.02;55.18
21185;BME280;18176;49.502;11.754;2023-03-19T15:41:02;96862.09;;;17.93;55.97
21185;BME280;18176;49.502;11.754;2023-03-19T15:45:07;96838.00;;;17.88;56.26
21185;BME280;18176;49.502;11.754;2023-03-19T15:49:25;96822.59;;;17.65;56.62
21185;BME280;18176;49.502;11.754;2023-03-19T15:53:38;96845.31;;;17.08;59.33
21185;BME280;18176;49.502;11.754;2023-03-19T15:57:44;96847.22;;;16.93;60.43
21185;BME280;18176;49.502;11.754;2023-03-19T16:01:45;96848.53;;;17.10;59.95
21185;BME280;18176;49.502;11.754;2023-03-19T16:05:50;96838.84;;;17.24;59.52
21185;BME280;18176;49.502;11.754;2023-03-19T16:09:57;96851.66;;;17.32;59.37
21185;BME280;18176;49.502;11.754;2023-03-19T16:14:08;96854.91;;;17.24;59.53
21185;BME280;18176;49.502;11.754;2023-03-19T16:18:24;96855.50;;;17.01;60.65
21185;BME280;18176;49.502;11.754;2023-03-19T16:22:30;96851.28;;;16.75;61.54
21185;BME280;18176;49.502;11.754;2023-03-19T16:26:38;96857.16;;;16.82;61.26
21185;BME280;18176;49.502;11.754;2023-03-19T16:30:46;96863.03;;;16.74;61.56
21185;BME280;18176;49.502;11.754;2023-03-19T16:34:51;96868.41;;;16.49;62.87
21185;BME280;18176;49.502;11.754;2023-03-19T16:38:56;96859.06;;;16.36;62.93
21185;BME280;18176;49.502;11.754;2023-03-19T16:43:06;96844.88;;;16.10;63.30
21185;BME280;18176;49.502;11.754;2023-03-19T16:47:13;96848.59;;;15.79;64.02
21185;BME280;18176;49.502;11.754;2023-03-19T16:51:16;96881.72;;;15.83;64.76
21185;BME280;18176;49.502;11.754;2023-03-19T16:55:22;96877.00;;;15.38;65.72
21185;BME280;18176;49.502;11.754;2023-03-19T16:59:28;96882.78;;;15.20;67.12
21185;BME280;18176;49.502;11.754;2023-03-19T17:03:31;96886.06;;;14.86;67.83
21185;BME280;18176;49.502;11.754;2023-03-19T17:07:32;96887.59;;;14.76;67.99
21185;BME280;18176;49.502;11.754;2023-03-19T17:11:37;96889.59;;;14.54;69.30
21185;BME280;18176;49.502;11.754;2023-03-19T17:15:41;96884.13;;;14.34;69.61
21185;BME280;18176;49.502;11.754;2023-03-19T17:19:46;96883.50;;;14.27;70.46
21185;BME280;18176;49.502;11.754;2023-03-19T17:23:47;96846.41;;;13.94;70.97
21185;BME280;18176;49.502;11.754;2023-03-19T17:27:52;96885.94;;;14.02;72.06
21185;BME280;18176;49.502;11.754;2023-03-19T17:31:58;96873.97;;;13.78;72.54
21185;BME280;18176;49.502;11.754;2023-03-19T17:36:09;96879.97;;;13.68;73.79
21185;BME280;18176;49.502;11.754;2023-03-19T17:40:18;96901.59;;;13.72;73.95
21185;BME280;18176;49.502;11.754;2023-03-19T17:44:19;96921.59;;;13.53;75.28
21185;BME280;18176;49.502;11.754;2023-03-19T17:48:23;96915.97;;;13.27;76.02
21185;BME280;18176;49.502;11.754;2023-03-19T17:52:32;96939.47;;;13.35;75.16
21185;BME280;18176;49.502;11.754;2023-03-19T17:56:45;96927.91;;;13.25;75.53
21185;BME280;18176;49.502;11.754;2023-03-19T18:00:57;96868.69;;;12.75;75.44
21185;BME280;18176;49.502;11.754;2023-03-19T18:05:14;96925.84;;;13.10;76.66
21185;BME280;18176;49.502;11.754;2023-03-19T18:09:27;96940.84;;;13.16;76.05
21185;BME280;18176;49.502;11.754;2023-03-19T18:13:40;96946.47;;;13.03;76.77
21185;BME280;18176;49.502;11.754;2023-03-19T18:17:46;96948.09;;;13.04;76.39
21185;BME280;18176;49.502;11.754;2023-03-19T18:21:47;96948.19;;;13.09;75.82
21185;BME280;18176;49.502;11.754;2023-03-19T18:25:50;96961.50;;;13.09;75.76
21185;BME280;18176;49.502;11.754;2023-03-19T18:29:54;96969.63;;;13.03;75.94
21185;BME280;18176;49.502;11.754;2023-03-19T18:33:59;96978.38;;;13.03;75.70
21185;BME280;18176;49.502;11.754;2023-03-19T18:38:01;96970.25;;;12.93;76.10
21185;BME280;18176;49.502;11.754;2023-03-19T18:42:04;96976.97;;;12.79;76.87
21185;BME280;18176;49.502;11.754;2023-03-19T18:46:08;96983.38;;;12.66;77.85
21185;BME280;18176;49.502;11.754;2023-03-19T18:50:18;96993.38;;;12.76;77.52
21185;BME280;18176;49.502;11.754;2023-03-19T18:54:19;96979.88;;;12.78;77.55
21185;BME280;18176;49.502;11.754;2023-03-19T18:58:37;96998.72;;;12.76;77.88
21185;BME280;18176;49.502;11.754;2023-03-19T19:02:41;96984.69;;;12.64;78.50
21185;BME280;18176;49.502;11.754;2023-03-19T19:06:47;96997.75;;;12.82;78.65
21185;BME280;18176;49.502;11.754;2023-03-19T19:16:23;97000.72;;;13.02;77.63
21185;BME280;18176;49.502;11.754;2023-03-19T19:20:38;97005.34;;;13.07;77.55
21185;BME280;18176;49.502;11.754;2023-03-19T19:24:56;96983.56;;;12.93;77.39
21185;BME280;18176;49.502;11.754;2023-03-19T19:29:01;97015.00;;;12.80;79.00
21185;BME280;18176;49.502;11.754;2023-03-19T19:33:14;97010.63;;;12.57;79.88
21185;BME280;18176;49.502;11.754;2023-03-19T19:37:16;97020.72;;;12.27;80.50
21185;BME280;18176;49.502;11.754;2023-03-19T19:41:23;97016.44;;;11.97;81.24
21185;BME280;18176;49.502;11.754;2023-03-19T19:45:30;97024.22;;;12.16;80.93
21185;BME280;18176;49.502;11.754;2023-03-19T19:49:35;97022.41;;;12.05;82.00
21185;BME280;18176;49.502;11.754;2023-03-19T19:53:35;97032.28;;;12.21;81.92
21185;BME280;18176;49.502;11.754;2023-03-19T19:57:37;97039.97;;;12.34;81.13
21185;BME280;18176;49.502;11.754;2023-03-19T20:01:39;97039.50;;;12.37;80.45
21185;BME280;18176;49.502;11.754;2023-03-19T20:05:44;97040.81;;;12.23;80.51
21185;BME280;18176;49.502;11.754;2023-03-19T20:09:47;97044.84;;;12.25;80.51
21185;BME280;18176;49.502;11.754;2023-03-19T20:13:50;97054.03;;;12.18;80.30
21185;BME280;18176;49.502;11.754;2023-03-19T20:17:53;97063.97;;;12.11;81.06
21185;BME280;18176;49.502;11.754;2023-03-19T20:21:57;97072.13;;;11.92;82.68
21185;BME280;18176;49.502;11.754;2023-03-19T20:25:58;97082.00;;;12.09;82.75
21185;BME280;18176;49.502;11.754;2023-03-19T20:29:58;97078.00;;;12.23;82.13
21185;BME280;18176;49.502;11.754;2023-03-19T20:33:59;97074.78;;;12.21;82.05
21185;BME280;18176;49.502;11.754;2023-03-19T20:38:04;97074.44;;;12.29;81.80
21185;BME280;18176;49.502;11.754;2023-03-19T20:42:10;97085.50;;;12.26;81.95
21185;BME280;18176;49.502;11.754;2023-03-19T20:46:12;97090.25;;;12.24;81.91
21185;BME280;18176;49.502;11.754;2023-03-19T20:50:18;97097.38;;;12.35;81.79
21185;BME280;18176;49.502;11.754;2023-03-19T20:54:21;97097.78;;;12.27;82.08
21185;BME280;18176;49.502;11.754;2023-03-19T20:58:26;97095.78;;;12.34;81.78
21185;BME280;18176;49.502;11.754;2023-03-19T21:02:27;97092.72;;;12.42;81.39
21185;BME280;18176;49.502;11.754;2023-03-19T21:06:28;97087.41;;;12.42;81.06
21185;BME280;18176;49.502;11.754;2023-03-19T21:10:50;97091.34;;;12.39;81.12
21185;BME280;18176;49.502;11.754;2023-03-19T21:14:51;97094.28;;;12.26;81.83
21185;BME280;18176;49.502;11.754;2023-03-19T21:18:52;97094.44;;;12.20;82.39
21185;BME280;18176;49.502;11.754;2023-03-19T21:23:02;97097.09;;;12.20;82.46
21185;BME280;18176;49.502;11.754;2023-03-19T21:27:20;97091.78;;;12.20;81.59
21185;BME280;18176;49.502;11.754;2023-03-19T21:31:21;97087.03;;;12.22;81.24
21185;BME280;18176;49.502;11.754;2023-03-19T21:35:25;97088.84;;;12.33;80.57
21185;BME280;18176;49.502;11.754;2023-03-19T21:39:26;97092.56;;;12.20;80.96
21185;BME280;18176;49.502;11.754;2023-03-19T21:43:35;97084.72;;;12.14;81.57
21185;BME280;18176;49.502;11.754;2023-03-19T21:47:39;97089.88;;;12.04;82.03